Terminal Aerodrome Forecast
Issued by NWS Jackson, MS

Home | Current Version | Previous Version | Text Only | Print | Product List | Glossary On
Versions: 1 2 3 4 5 6 7 8 9 10 11 12 13 14 15 16 17 18 19 20 21 22
000
FTUS44 KJAN 182342
TAFHBG
TAF
KHBG 182342Z 1900/1924 16004KT P6SM VCSH SCT025 BKN040 BKN130
     FM190400 16005KT 5SM BR VCSH SCT006 BKN025 OVC090
     FM190700 16005KT 4SM BR VCSH BKN008 OVC090
     FM191100 16006KT 2SM -SHRA BR VCTS BKN005CB OVC130
     FM191500 17008KT 3SM TSRA BR BKN006CB OVC090
     FM191700 19010KT 3SM TSRA BR BKN015CB OVC130=

USA.gov is the U.S. government's official web portal to all federal, state and local government web resources and services.